sensor_id;sensor_type;location;lat;lon;timestamp;P1;durP1;ratioP1;P2;durP2;ratioP2
2386;SDS011;49473;50.772;8.768;2023-12-20T00:01:38;1.70;;;1.60;;
2386;SDS011;49473;50.772;8.768;2023-12-20T00:04:05;1.57;;;1.47;;
2386;SDS011;49473;50.772;8.768;2023-12-20T00:06:32;2.10;;;1.20;;
2386;SDS011;49473;50.772;8.768;2023-12-20T00:08:59;1.30;;;1.30;;
2386;SDS011;49473;50.772;8.768;2023-12-20T00:11:25;1.67;;;1.57;;
2386;SDS011;49473;50.772;8.768;2023-12-20T00:13:53;1.53;;;1.27;;
2386;SDS011;49473;50.772;8.768;2023-12-20T00:16:20;1.50;;;1.40;;
2386;SDS011;49473;50.772;8.768;2023-12-20T00:18:47;1.63;;;1.50;;
2386;SDS011;49473;50.772;8.768;2023-12-20T00:21:14;1.50;;;1.40;;
2386;SDS011;49473;50.772;8.768;2023-12-20T00:23:40;1.70;;;1.60;;
2386;SDS011;49473;50.772;8.768;2023-12-20T00:26:07;1.40;;;1.30;;
2386;SDS011;49473;50.772;8.768;2023-12-20T00:28:34;1.57;;;1.47;;
2386;SDS011;49473;50.772;8.768;2023-12-20T00:31:02;1.17;;;1.17;;
2386;SDS011;49473;50.772;8.768;2023-12-20T00:33:30;1.50;;;1.40;;
2386;SDS011;49473;50.772;8.768;2023-12-20T00:35:57;1.30;;;1.23;;
2386;SDS011;49473;50.772;8.768;2023-12-20T00:38:24;1.20;;;1.20;;
2386;SDS011;49473;50.772;8.768;2023-12-20T00:40:51;1.60;;;1.50;;
2386;SDS011;49473;50.772;8.768;2023-12-20T00:43:17;1.23;;;1.13;;
2386;SDS011;49473;50.772;8.768;2023-12-20T00:45:44;1.23;;;1.13;;
2386;SDS011;49473;50.772;8.768;2023-12-20T00:48:12;1.30;;;1.20;;
2386;SDS011;49473;50.772;8.768;2023-12-20T00:50:39;1.17;;;1.10;;
2386;SDS011;49473;50.772;8.768;2023-12-20T00:53:07;1.00;;;1.00;;
2386;SDS011;49473;50.772;8.768;2023-12-20T00:55:33;1.40;;;1.30;;
2386;SDS011;49473;50.772;8.768;2023-12-20T00:58:00;0.90;;;0.90;;
2386;SDS011;49473;50.772;8.768;2023-12-20T01:00:27;1.40;;;1.30;;
2386;SDS011;49473;50.772;8.768;2023-12-20T01:02:53;0.83;;;0.83;;
2386;SDS011;49473;50.772;8.768;2023-12-20T01:05:21;1.40;;;1.27;;
2386;SDS011;49473;50.772;8.768;2023-12-20T01:07:48;1.27;;;1.17;;
2386;SDS011;49473;50.772;8.768;2023-12-20T01:10:15;1.33;;;1.23;;
2386;SDS011;49473;50.772;8.768;2023-12-20T01:12:42;1.13;;;1.13;;
2386;SDS011;49473;50.772;8.768;2023-12-20T01:15:09;1.20;;;1.20;;
2386;SDS011;49473;50.772;8.768;2023-12-20T01:17:36;1.10;;;1.10;;
2386;SDS011;49473;50.772;8.768;2023-12-20T01:20:03;1.30;;;1.20;;
2386;SDS011;49473;50.772;8.768;2023-12-20T01:22:32;0.93;;;0.93;;
2386;SDS011;49473;50.772;8.768;2023-12-20T01:25:00;1.53;;;1.10;;
2386;SDS011;49473;50.772;8.768;2023-12-20T01:27:28;0.97;;;0.97;;
2386;SDS011;49473;50.772;8.768;2023-12-20T01:29:56;1.00;;;1.00;;
2386;SDS011;49473;50.772;8.768;2023-12-20T01:32:22;1.13;;;1.03;;
2386;SDS011;49473;50.772;8.768;2023-12-20T01:34:49;1.00;;;1.00;;
2386;SDS011;49473;50.772;8.768;2023-12-20T01:37:16;1.00;;;1.00;;
2386;SDS011;49473;50.772;8.768;2023-12-20T01:39:44;0.90;;;0.90;;
2386;SDS011;49473;50.772;8.768;2023-12-20T01:42:11;1.40;;;1.30;;
2386;SDS011;49473;50.772;8.768;2023-12-20T01:44:38;1.30;;;1.20;;
2386;SDS011;49473;50.772;8.768;2023-12-20T01:47:04;2.70;;;1.10;;
2386;SDS011;49473;50.772;8.768;2023-12-20T01:49:31;1.33;;;1.00;;
2386;SDS011;49473;50.772;8.768;2023-12-20T01:51:58;1.10;;;1.00;;
2386;SDS011;49473;50.772;8.768;2023-12-20T01:54:25;1.17;;;1.10;;
2386;SDS011;49473;50.772;8.768;2023-12-20T01:56:53;0.97;;;0.97;;
2386;SDS011;49473;50.772;8.768;2023-12-20T01:59:20;1.03;;;1.03;;
2386;SDS011;49473;50.772;8.768;2023-12-20T02:01:47;1.13;;;1.10;;
2386;SDS011;49473;50.772;8.768;2023-12-20T02:04:14;0.90;;;0.80;;
2386;SDS011;49473;50.772;8.768;2023-12-20T02:06:42;0.80;;;0.80;;
2386;SDS011;49473;50.772;8.768;2023-12-20T02:09:09;0.80;;;0.80;;
2386;SDS011;49473;50.772;8.768;2023-12-20T02:11:36;1.00;;;1.00;;
2386;SDS011;49473;50.772;8.768;2023-12-20T02:14:05;1.17;;;1.07;;
2386;SDS011;49473;50.772;8.768;2023-12-20T02:16:32;1.20;;;1.20;;
2386;SDS011;49473;50.772;8.768;2023-12-20T02:18:58;0.83;;;0.83;;
2386;SDS011;49473;50.772;8.768;2023-12-20T02:21:31;0.80;;;0.80;;
2386;SDS011;49473;50.772;8.768;2023-12-20T02:23:59;0.90;;;0.90;;
2386;SDS011;49473;50.772;8.768;2023-12-20T02:26:26;1.40;;;0.80;;
2386;SDS011;49473;50.772;8.768;2023-12-20T02:28:53;1.00;;;1.00;;
2386;SDS011;49473;50.772;8.768;2023-12-20T02:31:20;0.90;;;0.90;;
2386;SDS011;49473;50.772;8.768;2023-12-20T02:33:47;1.30;;;1.20;;
2386;SDS011;49473;50.772;8.768;2023-12-20T02:36:14;0.90;;;0.90;;
2386;SDS011;49473;50.772;8.768;2023-12-20T02:38:42;1.20;;;1.10;;
2386;SDS011;49473;50.772;8.768;2023-12-20T02:41:08;0.90;;;0.90;;
2386;SDS011;49473;50.772;8.768;2023-12-20T02:43:35;1.17;;;1.17;;
2386;SDS011;49473;50.772;8.768;2023-12-20T02:46:02;2.30;;;1.23;;
2386;SDS011;49473;50.772;8.768;2023-12-20T02:48:29;3.23;;;1.10;;
2386;SDS011;49473;50.772;8.768;2023-12-20T02:50:56;1.10;;;1.10;;
2386;SDS011;49473;50.772;8.768;2023-12-20T02:53:22;1.53;;;1.20;;
2386;SDS011;49473;50.772;8.768;2023-12-20T02:55:50;1.60;;;1.50;;
2386;SDS011;49473;50.772;8.768;2023-12-20T02:58:17;1.47;;;1.37;;
2386;SDS011;49473;50.772;8.768;2023-12-20T03:00:44;2.53;;;1.50;;
2386;SDS011;49473;50.772;8.768;2023-12-20T03:03:11;1.60;;;1.50;;
2386;SDS011;49473;50.772;8.768;2023-12-20T03:05:37;1.80;;;1.70;;
2386;SDS011;49473;50.772;8.768;2023-12-20T03:08:04;1.70;;;1.60;;
2386;SDS011;49473;50.772;8.768;2023-12-20T03:10:31;1.70;;;1.60;;
2386;SDS011;49473;50.772;8.768;2023-12-20T03:12:59;2.07;;;1.97;;
2386;SDS011;49473;50.772;8.768;2023-12-20T03:15:26;2.03;;;1.93;;
2386;SDS011;49473;50.772;8.768;2023-12-20T03:17:53;1.50;;;1.40;;
2386;SDS011;49473;50.772;8.768;2023-12-20T03:20:20;1.30;;;1.30;;
2386;SDS011;49473;50.772;8.768;2023-12-20T03:22:46;1.70;;;1.60;;
2386;SDS011;49473;50.772;8.768;2023-12-20T03:25:13;1.70;;;1.60;;
2386;SDS011;49473;50.772;8.768;2023-12-20T03:27:40;2.40;;;1.30;;
2386;SDS011;49473;50.772;8.768;2023-12-20T03:30:08;1.90;;;1.70;;
2386;SDS011;49473;50.772;8.768;2023-12-20T03:32:36;1.90;;;1.70;;
2386;SDS011;49473;50.772;8.768;2023-12-20T03:35:04;1.60;;;1.50;;
2386;SDS011;49473;50.772;8.768;2023-12-20T03:37:31;1.70;;;1.60;;
2386;SDS011;49473;50.772;8.768;2023-12-20T03:39:58;1.73;;;1.63;;
2386;SDS011;49473;50.772;8.768;2023-12-20T03:42:25;4.03;;;2.37;;
2386;SDS011;49473;50.772;8.768;2023-12-20T03:44:51;1.97;;;1.87;;
2386;SDS011;49473;50.772;8.768;2023-12-20T03:47:19;2.10;;;1.90;;
2386;SDS011;49473;50.772;8.768;2023-12-20T03:49:46;3.93;;;2.00;;
2386;SDS011;49473;50.772;8.768;2023-12-20T03:52:13;3.73;;;1.87;;
2386;SDS011;49473;50.772;8.768;2023-12-20T03:54:40;2.30;;;2.10;;
2386;SDS011;49473;50.772;8.768;2023-12-20T03:57:07;2.83;;;2.10;;
2386;SDS011;49473;50.772;8.768;2023-12-20T03:59:34;2.40;;;2.30;;
2386;SDS011;49473;50.772;8.768;2023-12-20T04:02:02;2.73;;;2.50;;
2386;SDS011;49473;50.772;8.768;2023-12-20T04:04:30;3.43;;;2.77;;
2386;SDS011;49473;50.772;8.768;2023-12-20T04:06:57;2.60;;;2.30;;
2386;SDS011;49473;50.772;8.768;2023-12-20T04:09:23;3.17;;;2.20;;
2386;SDS011;49473;50.772;8.768;2023-12-20T04:11:50;3.53;;;2.47;;
2386;SDS011;49473;50.772;8.768;2023-12-20T04:14:17;2.67;;;2.20;;
2386;SDS011;49473;50.772;8.768;2023-12-20T04:16:43;3.83;;;2.47;;
2386;SDS011;49473;50.772;8.768;2023-12-20T04:19:10;3.13;;;2.10;;
2386;SDS011;49473;50.772;8.768;2023-12-20T04:21:38;3.70;;;2.17;;
2386;SDS011;49473;50.772;8.768;2023-12-20T04:24:05;2.77;;;2.50;;
2386;SDS011;49473;50.772;8.768;2023-12-20T04:26:32;2.37;;;1.90;;
2386;SDS011;49473;50.772;8.768;2023-12-20T04:28:59;2.63;;;2.00;;
2386;SDS011;49473;50.772;8.768;2023-12-20T04:31:25;4.47;;;2.13;;
2386;SDS011;49473;50.772;8.768;2023-12-20T04:33:52;2.63;;;2.43;;
2386;SDS011;49473;50.772;8.768;2023-12-20T04:36:19;3.10;;;2.77;;
2386;SDS011;49473;50.772;8.768;2023-12-20T04:38:47;4.17;;;2.40;;
2386;SDS011;49473;50.772;8.768;2023-12-20T04:41:13;3.37;;;2.90;;
2386;SDS011;49473;50.772;8.768;2023-12-20T04:43:40;3.13;;;2.60;;
2386;SDS011;49473;50.772;8.768;2023-12-20T04:46:07;5.57;;;2.90;;
2386;SDS011;49473;50.772;8.768;2023-12-20T04:48:34;5.80;;;3.10;;
2386;SDS011;49473;50.772;8.768;2023-12-20T04:51:00;3.63;;;2.77;;
2386;SDS011;49473;50.772;8.768;2023-12-20T04:53:27;4.00;;;3.60;;
2386;SDS011;49473;50.772;8.768;2023-12-20T04:55:55;4.77;;;3.50;;
2386;SDS011;49473;50.772;8.768;2023-12-20T04:58:22;5.03;;;4.07;;
2386;SDS011;49473;50.772;8.768;2023-12-20T05:00:49;4.40;;;3.10;;
2386;SDS011;49473;50.772;8.768;2023-12-20T05:03:15;2.90;;;2.50;;
2386;SDS011;49473;50.772;8.768;2023-12-20T05:05:42;4.60;;;2.80;;
2386;SDS011;49473;50.772;8.768;2023-12-20T05:08:09;3.27;;;2.53;;
2386;SDS011;49473;50.772;8.768;2023-12-20T05:10:35;4.57;;;2.23;;
2386;SDS011;49473;50.772;8.768;2023-12-20T05:13:04;4.20;;;2.40;;
2386;SDS011;49473;50.772;8.768;2023-12-20T05:15:30;2.30;;;2.10;;
2386;SDS011;49473;50.772;8.768;2023-12-20T05:17:57;2.67;;;2.17;;
2386;SDS011;49473;50.772;8.768;2023-12-20T05:20:24;4.47;;;2.53;;
2386;SDS011;49473;50.772;8.768;2023-12-20T05:22:51;3.13;;;2.93;;
2386;SDS011;49473;50.772;8.768;2023-12-20T05:25:17;3.80;;;2.80;;
2386;SDS011;49473;50.772;8.768;2023-12-20T05:27:44;6.80;;;6.10;;
2386;SDS011;49473;50.772;8.768;2023-12-20T05:30:12;5.83;;;4.37;;
2386;SDS011;49473;50.772;8.768;2023-12-20T05:32:39;6.60;;;3.57;;
2386;SDS011;49473;50.772;8.768;2023-12-20T05:35:06;6.10;;;2.70;;
2386;SDS011;49473;50.772;8.768;2023-12-20T05:37:33;2.80;;;2.50;;
2386;SDS011;49473;50.772;8.768;2023-12-20T05:40:00;2.60;;;2.30;;
2386;SDS011;49473;50.772;8.768;2023-12-20T05:42:27;4.47;;;2.57;;
2386;SDS011;49473;50.772;8.768;2023-12-20T05:44:54;4.83;;;3.20;;
2386;SDS011;49473;50.772;8.768;2023-12-20T05:47:22;3.70;;;3.20;;
2386;SDS011;49473;50.772;8.768;2023-12-20T05:49:49;3.50;;;3.10;;
2386;SDS011;49473;50.772;8.768;2023-12-20T05:52:16;3.13;;;2.73;;
2386;SDS011;49473;50.772;8.768;2023-12-20T05:54:42;3.80;;;2.87;;
2386;SDS011;49473;50.772;8.768;2023-12-20T05:57:09;3.50;;;3.20;;
2386;SDS011;49473;50.772;8.768;2023-12-20T05:59:36;4.10;;;3.70;;
2386;SDS011;49473;50.772;8.768;2023-12-20T06:02:03;4.07;;;3.60;;
2386;SDS011;49473;50.772;8.768;2023-12-20T06:04:31;4.07;;;2.90;;
2386;SDS011;49473;50.772;8.768;2023-12-20T06:06:58;6.03;;;3.23;;
2386;SDS011;49473;50.772;8.768;2023-12-20T06:09:26;3.20;;;2.87;;
2386;SDS011;49473;50.772;8.768;2023-12-20T06:11:53;4.90;;;3.53;;
2386;SDS011;49473;50.772;8.768;2023-12-20T06:14:19;2.60;;;2.40;;
2386;SDS011;49473;50.772;8.768;2023-12-20T06:16:45;3.87;;;3.20;;
2386;SDS011;49473;50.772;8.768;2023-12-20T06:19:12;6.80;;;3.50;;
2386;SDS011;49473;50.772;8.768;2023-12-20T06:21:40;6.10;;;3.20;;
2386;SDS011;49473;50.772;8.768;2023-12-20T06:24:07;3.90;;;3.20;;
2386;SDS011;49473;50.772;8.768;2023-12-20T06:26:34;4.50;;;3.33;;
2386;SDS011;49473;50.772;8.768;2023-12-20T06:29:01;6.43;;;3.07;;
2386;SDS011;49473;50.772;8.768;2023-12-20T06:31:28;5.60;;;3.70;;
2386;SDS011;49473;50.772;8.768;2023-12-20T06:33:54;7.33;;;3.40;;
2386;SDS011;49473;50.772;8.768;2023-12-20T06:36:24;3.10;;;2.60;;
2386;SDS011;49473;50.772;8.768;2023-12-20T06:38:53;4.13;;;3.73;;
2386;SDS011;49473;50.772;8.768;2023-12-20T06:41:19;5.63;;;3.07;;
2386;SDS011;49473;50.772;8.768;2023-12-20T06:43:46;4.73;;;2.30;;
2386;SDS011;49473;50.772;8.768;2023-12-20T06:46:13;5.57;;;2.77;;
2386;SDS011;49473;50.772;8.768;2023-12-20T06:48:39;3.83;;;2.90;;
2386;SDS011;49473;50.772;8.768;2023-12-20T06:51:06;4.77;;;2.67;;
2386;SDS011;49473;50.772;8.768;2023-12-20T06:53:37;4.80;;;3.30;;
2386;SDS011;49473;50.772;8.768;2023-12-20T06:56:05;4.23;;;2.70;;
2386;SDS011;49473;50.772;8.768;2023-12-20T06:58:32;6.47;;;2.80;;
2386;SDS011;49473;50.772;8.768;2023-12-20T07:00:59;4.57;;;3.10;;
2386;SDS011;49473;50.772;8.768;2023-12-20T07:03:26;6.93;;;3.10;;
2386;SDS011;49473;50.772;8.768;2023-12-20T07:05:52;4.80;;;3.10;;
2386;SDS011;49473;50.772;8.768;2023-12-20T07:08:19;4.03;;;3.00;;
2386;SDS011;49473;50.772;8.768;2023-12-20T07:10:46;5.33;;;2.83;;
2386;SDS011;49473;50.772;8.768;2023-12-20T07:13:14;5.90;;;2.80;;
2386;SDS011;49473;50.772;8.768;2023-12-20T07:15:41;4.10;;;2.70;;
2386;SDS011;49473;50.772;8.768;2023-12-20T07:18:10;2.77;;;2.57;;
2386;SDS011;49473;50.772;8.768;2023-12-20T07:20:36;3.43;;;2.67;;
2386;SDS011;49473;50.772;8.768;2023-12-20T07:23:04;5.20;;;2.83;;
2386;SDS011;49473;50.772;8.768;2023-12-20T07:25:30;4.80;;;2.43;;
2386;SDS011;49473;50.772;8.768;2023-12-20T07:27:57;4.80;;;2.80;;
2386;SDS011;49473;50.772;8.768;2023-12-20T07:30:25;3.97;;;2.80;;
2386;SDS011;49473;50.772;8.768;2023-12-20T07:32:52;3.80;;;2.40;;
2386;SDS011;49473;50.772;8.768;2023-12-20T07:35:19;4.90;;;3.20;;
2386;SDS011;49473;50.772;8.768;2023-12-20T07:37:45;4.83;;;2.53;;
2386;SDS011;49473;50.772;8.768;2023-12-20T07:40:12;4.90;;;2.77;;
2386;SDS011;49473;50.772;8.768;2023-12-20T07:42:41;4.87;;;2.83;;
2386;SDS011;49473;50.772;8.768;2023-12-20T07:45:08;10.10;;;2.60;;
2386;SDS011;49473;50.772;8.768;2023-12-20T07:47:37;5.33;;;2.70;;
2386;SDS011;49473;50.772;8.768;2023-12-20T07:50:04;4.93;;;2.70;;
2386;SDS011;49473;50.772;8.768;2023-12-20T07:52:31;6.20;;;2.80;;
2386;SDS011;49473;50.772;8.768;2023-12-20T07:54:57;8.27;;;2.83;;
2386;SDS011;49473;50.772;8.768;2023-12-20T07:57:24;8.90;;;3.57;;
2386;SDS011;49473;50.772;8.768;2023-12-20T07:59:51;7.53;;;2.90;;
2386;SDS011;49473;50.772;8.768;2023-12-20T08:02:18;6.80;;;2.83;;
2386;SDS011;49473;50.772;8.768;2023-12-20T08:04:47;5.40;;;2.97;;
2386;SDS011;49473;50.772;8.768;2023-12-20T08:07:14;7.43;;;2.63;;
2386;SDS011;49473;50.772;8.768;2023-12-20T08:09:41;3.60;;;2.53;;
2386;SDS011;49473;50.772;8.768;2023-12-20T08:12:08;10.17;;;3.30;;
2386;SDS011;49473;50.772;8.768;2023-12-20T08:14:36;7.23;;;3.20;;
2386;SDS011;49473;50.772;8.768;2023-12-20T08:17:03;4.40;;;2.70;;
2386;SDS011;49473;50.772;8.768;2023-12-20T08:19:29;5.10;;;3.60;;
2386;SDS011;49473;50.772;8.768;2023-12-20T08:21:57;5.53;;;3.20;;
2386;SDS011;49473;50.772;8.768;2023-12-20T08:24:24;5.40;;;3.30;;
2386;SDS011;49473;50.772;8.768;2023-12-20T08:26:51;14.57;;;3.80;;
2386;SDS011;49473;50.772;8.768;2023-12-20T08:29:18;7.70;;;4.23;;
2386;SDS011;49473;50.772;8.768;2023-12-20T08:31:45;4.90;;;4.03;;
2386;SDS011;49473;50.772;8.768;2023-12-20T08:34:13;9.70;;;4.57;;
2386;SDS011;49473;50.772;8.768;2023-12-20T08:36:40;9.53;;;4.23;;
2386;SDS011;49473;50.772;8.768;2023-12-20T08:39:08;4.87;;;3.37;;
2386;SDS011;49473;50.772;8.768;2023-12-20T08:41:35;5.73;;;4.30;;
2386;SDS011;49473;50.772;8.768;2023-12-20T08:44:02;6.97;;;3.93;;
2386;SDS011;49473;50.772;8.768;2023-12-20T08:46:31;9.93;;;5.00;;
2386;SDS011;49473;50.772;8.768;2023-12-20T08:48:58;8.20;;;3.97;;
2386;SDS011;49473;50.772;8.768;2023-12-20T08:51:25;11.07;;;3.93;;
2386;SDS011;49473;50.772;8.768;2023-12-20T08:53:53;4.47;;;3.13;;
2386;SDS011;49473;50.772;8.768;2023-12-20T08:56:21;8.10;;;3.60;;
2386;SDS011;49473;50.772;8.768;2023-12-20T08:58:48;6.00;;;4.30;;
2386;SDS011;49473;50.772;8.768;2023-12-20T09:01:15;9.23;;;3.93;;
2386;SDS011;49473;50.772;8.768;2023-12-20T09:03:41;7.93;;;3.93;;
2386;SDS011;49473;50.772;8.768;2023-12-20T09:06:08;8.00;;;3.93;;
2386;SDS011;49473;50.772;8.768;2023-12-20T09:08:35;7.40;;;4.20;;
2386;SDS011;49473;50.772;8.768;2023-12-20T09:11:02;7.07;;;3.97;;
2386;SDS011;49473;50.772;8.768;2023-12-20T09:13:30;9.27;;;3.63;;
2386;SDS011;49473;50.772;8.768;2023-12-20T09:15:57;6.80;;;3.70;;
2386;SDS011;49473;50.772;8.768;2023-12-20T09:18:24;8.33;;;3.40;;
2386;SDS011;49473;50.772;8.768;2023-12-20T09:20:50;6.80;;;3.80;;
2386;SDS011;49473;50.772;8.768;2023-12-20T09:23:17;5.73;;;3.50;;
2386;SDS011;49473;50.772;8.768;2023-12-20T09:25:44;8.53;;;4.50;;
2386;SDS011;49473;50.772;8.768;2023-12-20T09:28:11;7.80;;;4.10;;
2386;SDS011;49473;50.772;8.768;2023-12-20T09:30:39;11.67;;;4.33;;
2386;SDS011;49473;50.772;8.768;2023-12-20T09:33:06;6.37;;;3.83;;
2386;SDS011;49473;50.772;8.768;2023-12-20T09:35:32;5.00;;;3.70;;
2386;SDS011;49473;50.772;8.768;2023-12-20T09:37:59;12.83;;;4.90;;
2386;SDS011;49473;50.772;8.768;2023-12-20T09:40:26;8.20;;;4.27;;
2386;SDS011;49473;50.772;8.768;2023-12-20T09:42:56;10.23;;;4.70;;
2386;SDS011;49473;50.772;8.768;2023-12-20T09:45:23;12.10;;;5.47;;
2386;SDS011;49473;50.772;8.768;2023-12-20T09:47:52;9.97;;;4.63;;
2386;SDS011;49473;50.772;8.768;2023-12-20T09:50:21;10.33;;;5.07;;
2386;SDS011;49473;50.772;8.768;2023-12-20T09:52:49;8.00;;;4.50;;
2386;SDS011;49473;50.772;8.768;2023-12-20T09:55:17;8.50;;;4.70;;
2386;SDS011;49473;50.772;8.768;2023-12-20T09:57:45;7.87;;;4.40;;
2386;SDS011;49473;50.772;8.768;2023-12-20T10:00:12;8.40;;;4.23;;
2386;SDS011;49473;50.772;8.768;2023-12-20T10:02:41;6.60;;;4.13;;
2386;SDS011;49473;50.772;8.768;2023-12-20T10:05:15;8.77;;;4.27;;
2386;SDS011;49473;50.772;8.768;2023-12-20T10:07:44;8.40;;;3.90;;
2386;SDS011;49473;50.772;8.768;2023-12-20T10:10:11;5.87;;;4.00;;
2386;SDS011;49473;50.772;8.768;2023-12-20T10:12:39;8.60;;;4.37;;
2386;SDS011;49473;50.772;8.768;2023-12-20T10:15:06;8.27;;;3.43;;
2386;SDS011;49473;50.772;8.768;2023-12-20T10:17:35;10.03;;;4.40;;
2386;SDS011;49473;50.772;8.768;2023-12-20T10:20:02;6.97;;;3.87;;
2386;SDS011;49473;50.772;8.768;2023-12-20T10:22:35;6.20;;;2.90;;
2386;SDS011;49473;50.772;8.768;2023-12-20T10:25:03;8.23;;;3.40;;
2386;SDS011;49473;50.772;8.768;2023-12-20T10:27:30;9.93;;;3.87;;
2386;SDS011;49473;50.772;8.768;2023-12-20T10:29:58;7.57;;;3.77;;
2386;SDS011;49473;50.772;8.768;2023-12-20T10:32:26;9.87;;;3.37;;
2386;SDS011;49473;50.772;8.768;2023-12-20T10:34:54;8.77;;;3.63;;
2386;SDS011;49473;50.772;8.768;2023-12-20T10:37:20;10.43;;;3.90;;
2386;SDS011;49473;50.772;8.768;2023-12-20T10:39:49;8.60;;;4.10;;
2386;SDS011;49473;50.772;8.768;2023-12-20T10:42:19;6.83;;;3.63;;
2386;SDS011;49473;50.772;8.768;2023-12-20T10:44:47;10.10;;;3.50;;
2386;SDS011;49473;50.772;8.768;2023-12-20T10:47:14;9.00;;;3.73;;
2386;SDS011;49473;50.772;8.768;2023-12-20T10:49:42;4.40;;;3.10;;
2386;SDS011;49473;50.772;8.768;2023-12-20T10:52:11;9.50;;;3.80;;
2386;SDS011;49473;50.772;8.768;2023-12-20T10:54:38;8.10;;;4.30;;
2386;SDS011;49473;50.772;8.768;2023-12-20T10:57:07;9.77;;;3.30;;
2386;SDS011;49473;50.772;8.768;2023-12-20T10:59:36;6.57;;;3.70;;
2386;SDS011;49473;50.772;8.768;2023-12-20T11:02:03;7.80;;;4.10;;
2386;SDS011;49473;50.772;8.768;2023-12-20T11:04:33;9.73;;;3.53;;
2386;SDS011;49473;50.772;8.768;2023-12-20T11:07:10;6.57;;;3.63;;
2386;SDS011;49473;50.772;8.768;2023-12-20T11:09:45;11.50;;;3.67;;
2386;SDS011;49473;50.772;8.768;2023-12-20T11:12:20;5.03;;;3.90;;
2386;SDS011;49473;50.772;8.768;2023-12-20T11:14:52;11.90;;;3.80;;
2386;SDS011;49473;50.772;8.768;2023-12-20T11:17:21;11.53;;;3.83;;
2386;SDS011;49473;50.772;8.768;2023-12-20T11:20:05;7.97;;;2.90;;
2386;SDS011;49473;50.772;8.768;2023-12-20T11:22:39;7.23;;;4.00;;
2386;SDS011;49473;50.772;8.768;2023-12-20T11:25:17;6.20;;;3.60;;
2386;SDS011;49473;50.772;8.768;2023-12-20T11:27:46;7.47;;;3.50;;
2386;SDS011;49473;50.772;8.768;2023-12-20T11:30:41;10.93;;;3.63;;
2386;SDS011;49473;50.772;8.768;2023-12-20T11:33:12;5.67;;;3.07;;
2386;SDS011;49473;50.772;8.768;2023-12-20T11:35:39;5.97;;;3.00;;
2386;SDS011;49473;50.772;8.768;2023-12-20T11:38:07;12.83;;;3.20;;
2386;SDS011;49473;50.772;8.768;2023-12-20T11:40:34;4.87;;;3.30;;
2386;SDS011;49473;50.772;8.768;2023-12-20T11:43:03;7.70;;;4.30;;
2386;SDS011;49473;50.772;8.768;2023-12-20T11:45:30;5.53;;;4.40;;
2386;SDS011;49473;50.772;8.768;2023-12-20T11:47:57;7.97;;;3.37;;
2386;SDS011;49473;50.772;8.768;2023-12-20T11:50:24;8.67;;;3.57;;
2386;SDS011;49473;50.772;8.768;2023-12-20T11:52:52;5.70;;;3.20;;
2386;SDS011;49473;50.772;8.768;2023-12-20T11:55:20;7.60;;;3.50;;
2386;SDS011;49473;50.772;8.768;2023-12-20T11:57:47;4.03;;;3.10;;
2386;SDS011;49473;50.772;8.768;2023-12-20T12:00:15;5.13;;;3.10;;
2386;SDS011;49473;50.772;8.768;2023-12-20T12:02:43;9.83;;;3.43;;
2386;SDS011;49473;50.772;8.768;2023-12-20T12:05:21;6.07;;;3.07;;
2386;SDS011;49473;50.772;8.768;2023-12-20T12:07:48;9.53;;;3.57;;
2386;SDS011;49473;50.772;8.768;2023-12-20T12:10:15;7.50;;;3.20;;
2386;SDS011;49473;50.772;8.768;2023-12-20T12:12:41;9.37;;;3.70;;
2386;SDS011;49473;50.772;8.768;2023-12-20T12:15:08;12.33;;;3.63;;
2386;SDS011;49473;50.772;8.768;2023-12-20T12:17:37;5.17;;;2.77;;
2386;SDS011;49473;50.772;8.768;2023-12-20T12:20:04;8.70;;;4.07;;
2386;SDS011;49473;50.772;8.768;2023-12-20T12:22:32;4.90;;;3.00;;
2386;SDS011;49473;50.772;8.768;2023-12-20T12:24:59;6.00;;;3.30;;
2386;SDS011;49473;50.772;8.768;2023-12-20T12:27:35;7.77;;;2.70;;
2386;SDS011;49473;50.772;8.768;2023-12-20T12:30:04;7.73;;;3.13;;
2386;SDS011;49473;50.772;8.768;2023-12-20T12:32:33;5.67;;;3.43;;
2386;SDS011;49473;50.772;8.768;2023-12-20T12:35:02;6.07;;;3.07;;
2386;SDS011;49473;50.772;8.768;2023-12-20T12:37:31;5.73;;;2.77;;
2386;SDS011;49473;50.772;8.768;2023-12-20T12:40:00;4.03;;;2.63;;
2386;SDS011;49473;50.772;8.768;2023-12-20T12:42:26;3.93;;;3.03;;
2386;SDS011;49473;50.772;8.768;2023-12-20T12:44:54;4.87;;;2.83;;
2386;SDS011;49473;50.772;8.768;2023-12-20T12:47:21;7.77;;;2.67;;
2386;SDS011;49473;50.772;8.768;2023-12-20T12:49:49;5.53;;;3.10;;
2386;SDS011;49473;50.772;8.768;2023-12-20T12:52:19;4.20;;;2.50;;
2386;SDS011;49473;50.772;8.768;2023-12-20T12:54:46;6.73;;;2.60;;
2386;SDS011;49473;50.772;8.768;2023-12-20T12:57:13;5.47;;;2.20;;
2386;SDS011;49473;50.772;8.768;2023-12-20T12:59:40;4.47;;;2.03;;
2386;SDS011;49473;50.772;8.768;2023-12-20T13:02:09;5.17;;;2.67;;
2386;SDS011;49473;50.772;8.768;2023-12-20T13:04:35;5.10;;;2.63;;
2386;SDS011;49473;50.772;8.768;2023-12-20T13:07:02;6.43;;;3.30;;
2386;SDS011;49473;50.772;8.768;2023-12-20T13:09:30;5.63;;;2.53;;
2386;SDS011;49473;50.772;8.768;2023-12-20T13:11:57;5.70;;;2.83;;
2386;SDS011;49473;50.772;8.768;2023-12-20T13:14:24;6.73;;;3.17;;
2386;SDS011;49473;50.772;8.768;2023-12-20T13:16:51;5.70;;;2.83;;
2386;SDS011;49473;50.772;8.768;2023-12-20T13:19:18;5.80;;;2.80;;
2386;SDS011;49473;50.772;8.768;2023-12-20T13:21:44;7.37;;;2.60;;
2386;SDS011;49473;50.772;8.768;2023-12-20T13:24:11;7.57;;;2.63;;
2386;SDS011;49473;50.772;8.768;2023-12-20T13:26:39;4.63;;;2.60;;
2386;SDS011;49473;50.772;8.768;2023-12-20T13:29:06;8.73;;;4.20;;
2386;SDS011;49473;50.772;8.768;2023-12-20T13:31:32;5.50;;;2.87;;
2386;SDS011;49473;50.772;8.768;2023-12-20T13:34:01;5.13;;;2.70;;
2386;SDS011;49473;50.772;8.768;2023-12-20T13:36:28;6.30;;;2.93;;
2386;SDS011;49473;50.772;8.768;2023-12-20T13:38:54;9.33;;;3.10;;
2386;SDS011;49473;50.772;8.768;2023-12-20T13:41:21;5.53;;;3.10;;
2386;SDS011;49473;50.772;8.768;2023-12-20T13:43:49;8.30;;;3.47;;
2386;SDS011;49473;50.772;8.768;2023-12-20T13:46:16;7.27;;;3.53;;
2386;SDS011;49473;50.772;8.768;2023-12-20T13:48:43;3.17;;;2.80;;
2386;SDS011;49473;50.772;8.768;2023-12-20T13:51:10;6.03;;;3.27;;
2386;SDS011;49473;50.772;8.768;2023-12-20T13:53:36;6.73;;;3.20;;
2386;SDS011;49473;50.772;8.768;2023-12-20T13:56:04;6.90;;;3.03;;
2386;SDS011;49473;50.772;8.768;2023-12-20T13:58:31;3.67;;;3.10;;
2386;SDS011;49473;50.772;8.768;2023-12-20T14:00:59;4.47;;;2.87;;
2386;SDS011;49473;50.772;8.768;2023-12-20T14:03:25;5.30;;;3.20;;
2386;SDS011;49473;50.772;8.768;2023-12-20T14:05:51;5.33;;;3.00;;
2386;SDS011;49473;50.772;8.768;2023-12-20T14:08:18;6.43;;;3.27;;
2386;SDS011;49473;50.772;8.768;2023-12-20T14:10:45;10.53;;;3.43;;
2386;SDS011;49473;50.772;8.768;2023-12-20T14:13:12;2.83;;;2.53;;
2386;SDS011;49473;50.772;8.768;2023-12-20T14:15:38;5.80;;;3.40;;
2386;SDS011;49473;50.772;8.768;2023-12-20T14:18:06;6.50;;;3.37;;
2386;SDS011;49473;50.772;8.768;2023-12-20T14:20:33;5.10;;;3.20;;
2386;SDS011;49473;50.772;8.768;2023-12-20T14:23:01;6.83;;;3.33;;
2386;SDS011;49473;50.772;8.768;2023-12-20T14:25:27;4.47;;;3.40;;
2386;SDS011;49473;50.772;8.768;2023-12-20T14:27:55;5.87;;;3.83;;
2386;SDS011;49473;50.772;8.768;2023-12-20T14:30:22;8.70;;;4.10;;
2386;SDS011;49473;50.772;8.768;2023-12-20T14:32:49;7.60;;;4.63;;
2386;SDS011;49473;50.772;8.768;2023-12-20T14:35:17;8.53;;;3.60;;
2386;SDS011;49473;50.772;8.768;2023-12-20T14:37:44;4.50;;;3.60;;
2386;SDS011;49473;50.772;8.768;2023-12-20T14:40:11;7.70;;;4.07;;
2386;SDS011;49473;50.772;8.768;2023-12-20T14:42:41;5.70;;;3.33;;
2386;SDS011;49473;50.772;8.768;2023-12-20T14:45:08;7.23;;;3.83;;
2386;SDS011;49473;50.772;8.768;2023-12-20T14:47:35;8.13;;;3.47;;
2386;SDS011;49473;50.772;8.768;2023-12-20T14:50:02;4.80;;;3.60;;
2386;SDS011;49473;50.772;8.768;2023-12-20T14:52:31;6.03;;;4.47;;
2386;SDS011;49473;50.772;8.768;2023-12-20T14:54:59;5.50;;;3.53;;
2386;SDS011;49473;50.772;8.768;2023-12-20T14:57:26;5.90;;;3.50;;
2386;SDS011;49473;50.772;8.768;2023-12-20T14:59:54;4.63;;;3.57;;
2386;SDS011;49473;50.772;8.768;2023-12-20T15:02:21;8.73;;;4.30;;